Time;durP1;ratioP1;P1;durP2;ratioP2;P2;SDS_P1;SDS_P2;PMS_P1;PMS_P2;Temp;Humidity;BMP_temperature;BMP_pressure;BME280_temperature;BME280_humidity;BME280_pressure;Samples;Min_cycle;Max_cycle;Signal;HPM_P1;HPM_P2
2024/01/20 00:00:13;;;;;;;1999.90;999.90;;;-1.20;99.90;;;;;;4957874;28;20027;-85
2024/01/20 00:02:39;;;;;;;1999.90;999.90;;;-1.20;99.90;;;;;;4936766;28;20521;-85
2024/01/20 00:05:04;;;;;;;1999.90;999.90;;;-1.10;99.90;;;;;;4937251;29;20032;-85
2024/01/20 00:07:31;;;;;;;1999.90;999.90;;;-1.10;99.90;;;;;;4938568;28;20558;-85
2024/01/20 00:09:56;;;;;;;1999.90;999.90;;;-1.10;99.90;;;;;;4937199;28;20032;-85
2024/01/20 00:12:22;;;;;;;1999.90;999.90;;;-1.20;99.90;;;;;;4936670;29;20036;-85
2024/01/20 00:14:47;;;;;;;1999.90;999.90;;;-1.20;99.90;;;;;;4936518;28;20028;-85
2024/01/20 00:17:13;;;;;;;1999.90;999.90;;;-1.20;99.90;;;;;;4936731;28;20048;-85
2024/01/20 00:19:39;;;;;;;1999.90;999.90;;;-1.20;99.90;;;;;;4938457;28;20501;-84
2024/01/20 00:22:04;;;;;;;1999.90;999.90;;;-1.20;99.90;;;;;;4938115;28;20040;-85
2024/01/20 00:24:30;;;;;;;1999.90;999.90;;;-1.30;99.90;;;;;;4940365;28;20085;-85
2024/01/20 00:26:55;;;;;;;1999.90;999.90;;;-1.40;99.90;;;;;;4957447;28;20505;-85
2024/01/20 00:29:21;;;;;;;1999.90;999.90;;;-1.50;99.90;;;;;;4955881;28;20091;-85
2024/01/20 00:31:47;;;;;;;1999.90;999.90;;;-1.40;99.90;;;;;;4957299;28;20398;-85
2024/01/20 00:34:13;;;;;;;1999.90;999.90;;;-1.40;99.90;;;;;;4956197;28;20140;-85
2024/01/20 00:36:38;;;;;;;1999.90;999.90;;;-1.40;99.90;;;;;;4940668;28;20111;-85
2024/01/20 00:39:04;;;;;;;1999.90;999.90;;;-1.50;99.90;;;;;;4956971;28;20032;-85
2024/01/20 00:41:30;;;;;;;1999.90;999.90;;;-1.50;99.90;;;;;;4956743;28;20107;-85
2024/01/20 00:43:56;;;;;;;1999.90;999.90;;;-1.50;99.90;;;;;;4955612;28;20031;-85
2024/01/20 00:46:21;;;;;;;1999.90;999.90;;;-1.50;99.90;;;;;;4956894;28;20031;-84
2024/01/20 00:48:47;;;;;;;1999.90;999.90;;;-1.50;99.90;;;;;;4957046;28;20509;-85
2024/01/20 00:51:12;;;;;;;1999.90;999.90;;;-1.50;99.90;;;;;;4955532;28;20043;-85
2024/01/20 00:53:38;;;;;;;1999.90;999.90;;;-1.40;99.90;;;;;;4956910;28;20039;-85
2024/01/20 00:56:04;;;;;;;1999.90;999.90;;;-1.40;99.90;;;;;;4955505;28;20089;-86
2024/01/20 00:58:29;;;;;;;1999.90;999.90;;;-1.30;99.90;;;;;;4955728;28;20039;-88
2024/01/20 01:00:55;;;;;;;1999.90;999.90;;;-1.30;99.90;;;;;;4955844;28;20056;-86
2024/01/20 01:03:20;;;;;;;1999.90;999.90;;;-1.20;99.90;;;;;;4956314;28;20032;-86
2024/01/20 01:05:46;;;;;;;1999.90;999.90;;;-1.20;99.90;;;;;;4957964;28;20119;-86
2024/01/20 01:08:12;;;;;;;1999.90;999.90;;;-1.20;99.90;;;;;;4955887;28;20394;-86
2024/01/20 01:10:37;;;;;;;1999.90;999.90;;;-1.30;99.90;;;;;;4957695;28;20036;-86
2024/01/20 01:13:03;;;;;;;1999.90;999.90;;;-1.20;99.90;;;;;;4955865;28;20087;-86
2024/01/20 01:15:30;;;;;;;1999.90;999.90;;;-1.20;99.90;;;;;;4959088;28;20043;-87
2024/01/20 01:17:56;;;;;;;1999.90;999.90;;;-1.30;99.90;;;;;;4960867;28;20047;-86
2024/01/20 01:20:21;;;;;;;1999.90;999.90;;;-1.30;99.90;;;;;;4958303;28;20046;-87
2024/01/20 01:22:48;;;;;;;1999.90;999.90;;;-1.30;99.90;;;;;;4957893;28;20034;-86
2024/01/20 01:25:14;;;;;;;1999.90;999.90;;;-1.20;99.90;;;;;;4957716;28;20122;-86
2024/01/20 01:27:40;;;;;;;1999.90;999.90;;;-1.20;99.90;;;;;;4956947;28;20110;-86
2024/01/20 01:30:07;;;;;;;1999.90;999.90;;;-1.30;99.90;;;;;;4957735;28;20063;-86
2024/01/20 01:32:32;;;;;;;1999.90;999.90;;;-1.30;99.90;;;;;;4956261;28;20387;-86
2024/01/20 01:34:58;;;;;;;1999.90;999.90;;;-1.20;99.90;;;;;;4956250;28;20050;-86
2024/01/20 01:37:23;;;;;;;1999.90;999.90;;;-1.30;99.90;;;;;;4955938;28;20119;-86
2024/01/20 01:39:49;;;;;;;1999.90;999.90;;;-1.30;99.90;;;;;;4956169;28;20039;-86
2024/01/20 01:42:14;;;;;;;1999.90;999.90;;;-1.20;99.90;;;;;;4957311;28;20050;-86
2024/01/20 01:44:40;;;;;;;1999.90;999.90;;;-1.30;99.90;;;;;;4956063;28;20077;-86
2024/01/20 01:47:06;;;;;;;1999.90;999.90;;;-1.30;99.90;;;;;;4957221;28;20486;-86
2024/01/20 01:49:32;;;;;;;1999.90;999.90;;;-1.30;99.90;;;;;;4957603;28;20073;-86
2024/01/20 01:51:58;;;;;;;1999.90;999.90;;;-1.40;99.90;;;;;;4957609;28;20486;-86
2024/01/20 01:54:24;;;;;;;1999.90;999.90;;;-1.40;99.90;;;;;;4955883;28;20137;-86
2024/01/20 01:56:52;;;;;;;1999.90;999.90;;;-1.40;99.90;;;;;;4955521;28;20095;-86
2024/01/20 01:59:19;;;;;;;1999.90;999.90;;;-1.40;99.90;;;;;;4957414;28;20039;-86
2024/01/20 02:01:44;;;;;;;1999.90;999.90;;;-1.50;99.90;;;;;;4957294;28;20028;-86
2024/01/20 02:04:10;;;;;;;1999.90;999.90;;;-1.50;99.90;;;;;;4955898;28;20027;-86
2024/01/20 02:06:36;;;;;;;1999.90;999.90;;;-1.50;99.90;;;;;;4955607;28;20083;-86
2024/01/20 02:09:01;;;;;;;1999.90;999.90;;;-1.60;99.90;;;;;;4955957;28;20822;-86
2024/01/20 02:11:27;;;;;;;1999.90;999.90;;;-1.60;99.90;;;;;;4957256;28;20459;-86
2024/01/20 02:13:54;;;;;;;1999.90;999.90;;;-1.60;99.90;;;;;;4957262;28;20032;-86
2024/01/20 02:16:20;;;;;;;1999.90;999.90;;;-1.60;99.90;;;;;;4956944;28;20152;-86
2024/01/20 02:18:45;;;;;;;1999.90;999.90;;;-1.70;99.90;;;;;;4955468;28;20031;-86
2024/01/20 02:21:11;;;;;;;1999.90;999.90;;;-1.70;99.90;;;;;;4955541;28;20046;-86
2024/01/20 02:23:42;;;;;;;1999.90;999.90;;;-1.80;99.90;;;;;;4955647;28;20118;-86
2024/01/20 02:26:07;;;;;;;1999.90;999.90;;;-1.80;99.90;;;;;;4955722;28;20110;-86
2024/01/20 02:28:33;;;;;;;1999.90;999.90;;;-1.80;99.90;;;;;;4955341;28;20530;-86
2024/01/20 02:30:59;;;;;;;1999.90;999.90;;;-1.80;99.90;;;;;;4955518;28;20408;-86
2024/01/20 02:33:24;;;;;;;1999.90;999.90;;;-1.80;99.90;;;;;;4955479;28;20032;-86
2024/01/20 02:35:50;;;;;;;1999.90;999.90;;;-1.80;99.90;;;;;;4955280;28;20390;-86
2024/01/20 02:38:16;;;;;;;1999.90;999.90;;;-1.80;99.90;;;;;;4957229;28;20062;-86
2024/01/20 02:40:41;;;;;;;1999.90;999.90;;;-1.80;99.90;;;;;;4960140;28;20031;-85
2024/01/20 02:43:07;;;;;;;1999.90;999.90;;;-1.80;99.90;;;;;;4960228;28;20039;-86
2024/01/20 02:45:32;;;;;;;1999.90;999.90;;;-1.70;99.90;;;;;;4958817;28;20122;-86
2024/01/20 02:47:58;;;;;;;1999.90;999.90;;;-1.70;99.90;;;;;;4959956;28;20083;-86
2024/01/20 02:50:23;;;;;;;1999.90;999.90;;;-1.80;99.90;;;;;;4958601;28;20038;-86
2024/01/20 02:52:51;;;;;;;1999.90;999.90;;;-1.80;99.90;;;;;;4960385;28;20039;-86
2024/01/20 02:55:16;;;;;;;1999.90;999.90;;;-1.80;99.90;;;;;;4958565;28;20065;-86
2024/01/20 02:57:42;;;;;;;1999.90;999.90;;;-1.80;99.90;;;;;;4959544;28;20146;-86
2024/01/20 03:00:08;;;;;;;1999.90;999.90;;;-1.80;99.90;;;;;;4958641;28;20035;-86
2024/01/20 03:02:34;;;;;;;1999.90;999.90;;;-1.90;99.90;;;;;;4958686;28;20035;-85
2024/01/20 03:05:00;;;;;;;1999.90;999.90;;;-1.90;99.90;;;;;;4960207;28;20532;-85
2024/01/20 03:07:26;;;;;;;1999.90;999.90;;;-1.90;99.90;;;;;;4959722;28;20040;-84
2024/01/20 03:09:51;;;;;;;1999.90;999.90;;;-1.90;99.90;;;;;;4960142;28;20043;-85
2024/01/20 03:12:17;;;;;;;1999.90;999.90;;;-2.00;99.90;;;;;;4959725;28;20031;-85
2024/01/20 03:14:42;;;;;;;1999.90;999.90;;;-2.00;99.90;;;;;;4958616;28;20546;-85
2024/01/20 03:17:08;;;;;;;1999.90;999.90;;;-2.00;99.90;;;;;;4959664;28;20048;-85
2024/01/20 03:19:33;;;;;;;1999.90;999.90;;;-2.10;99.90;;;;;;4958489;28;20036;-85
2024/01/20 03:21:59;;;;;;;1999.90;999.90;;;-2.10;99.90;;;;;;4959918;28;20070;-85
2024/01/20 03:24:24;;;;;;;1999.90;999.90;;;-2.10;99.90;;;;;;4959761;28;20083;-86
2024/01/20 03:26:50;;;;;;;1999.90;999.90;;;-2.10;99.90;;;;;;4958565;28;20091;-85
2024/01/20 03:29:16;;;;;;;1999.90;999.90;;;-2.20;99.90;;;;;;4959892;28;20083;-85
2024/01/20 03:31:42;;;;;;;1999.90;999.90;;;-2.20;99.90;;;;;;4960418;28;20036;-85
2024/01/20 03:34:08;;;;;;;1999.90;999.90;;;-2.20;99.90;;;;;;4963164;28;20032;-85
2024/01/20 03:36:34;;;;;;;1999.90;999.90;;;-2.20;99.90;;;;;;4960840;28;20095;-85
2024/01/20 03:39:00;;;;;;;1999.90;999.90;;;-2.20;99.90;;;;;;4958149;28;20039;-85
2024/01/20 03:41:25;;;;;;;1999.90;999.90;;;-2.20;99.90;;;;;;4958128;28;20087;-84
2024/01/20 03:43:51;;;;;;;1999.90;999.90;;;-2.30;99.90;;;;;;4960291;28;20106;-85
2024/01/20 03:46:18;;;;;;;1999.90;999.90;;;-2.30;99.90;;;;;;4959707;28;20040;-84
2024/01/20 03:48:44;;;;;;;1999.90;999.90;;;-2.20;99.90;;;;;;4959396;28;20032;-85
2024/01/20 03:51:09;;;;;;;1999.90;999.90;;;-2.20;99.90;;;;;;4957503;28;20382;-85
2024/01/20 03:53:35;;;;;;;1999.90;999.90;;;-2.20;99.90;;;;;;4957913;28;20493;-85
2024/01/20 03:56:01;;;;;;;1999.90;999.90;;;-2.20;99.90;;;;;;4958128;28;20036;-85
2024/01/20 03:58:27;;;;;;;1999.90;999.90;;;-2.20;99.90;;;;;;4957565;28;20040;-85
2024/01/20 04:00:52;;;;;;;1999.90;999.90;;;-2.10;99.90;;;;;;4959174;28;20035;-85
2024/01/20 04:03:18;;;;;;;1999.90;999.90;;;-2.10;99.90;;;;;;4960583;28;20032;-85
2024/01/20 04:05:43;;;;;;;1999.90;999.90;;;-2.10;99.90;;;;;;4957836;28;20147;-85
2024/01/20 04:08:09;;;;;;;1999.90;999.90;;;-2.10;99.90;;;;;;4957580;28;20034;-85
2024/01/20 04:10:35;;;;;;;1999.90;999.90;;;-2.10;99.90;;;;;;4959166;28;20163;-85
2024/01/20 04:13:00;;;;;;;1999.90;999.90;;;-2.10;99.90;;;;;;4958018;28;20035;-85
2024/01/20 04:15:26;;;;;;;1999.90;999.90;;;-2.10;99.90;;;;;;4959616;28;20600;-86
2024/01/20 04:17:52;;;;;;;1999.90;999.90;;;-2.10;99.90;;;;;;4959276;28;20490;-85
2024/01/20 04:20:18;;;;;;;1999.90;999.90;;;-2.00;99.90;;;;;;4959309;28;20478;-85
2024/01/20 04:22:43;;;;;;;1999.90;999.90;;;-2.00;99.90;;;;;;4958023;28;20028;-85
2024/01/20 04:25:10;;;;;;;1999.90;999.90;;;-2.00;99.90;;;;;;4959277;28;20127;-84
2024/01/20 04:27:40;;;;;;;1999.90;999.90;;;-2.00;99.90;;;;;;4958021;28;20024;-85
2024/01/20 04:30:11;;;;;;;1999.90;999.90;;;-2.00;99.90;;;;;;4958064;28;20879;-85
2024/01/20 04:32:37;;;;;;;1999.90;999.90;;;-2.00;99.90;;;;;;4958654;28;20042;-85
2024/01/20 04:35:04;;;;;;;1999.90;999.90;;;-1.90;99.90;;;;;;4957797;28;20402;-84
2024/01/20 04:37:29;;;;;;;1999.90;999.90;;;-1.90;99.90;;;;;;4957381;28;20127;-85
2024/01/20 04:39:56;;;;;;;1999.90;999.90;;;-1.90;99.90;;;;;;4959284;28;20110;-85
2024/01/20 04:42:22;;;;;;;1999.90;999.90;;;-1.90;99.90;;;;;;4957723;28;20066;-85
2024/01/20 04:44:47;;;;;;;1999.90;999.90;;;-1.90;99.90;;;;;;4957214;28;20465;-85
2024/01/20 04:47:13;;;;;;;1999.90;999.90;;;-2.00;99.90;;;;;;4957090;28;20512;-85
2024/01/20 04:49:38;;;;;;;1999.90;999.90;;;-2.00;99.90;;;;;;4957305;28;20047;-85
2024/01/20 04:52:04;;;;;;;1999.90;999.90;;;-2.00;99.90;;;;;;4957885;28;20038;-85
2024/01/20 04:54:30;;;;;;;1999.90;999.90;;;-2.00;99.90;;;;;;4957422;28;20502;-85
2024/01/20 04:56:58;;;;;;;1999.90;999.90;;;-2.00;99.90;;;;;;4957977;28;20071;-85
2024/01/20 04:59:24;;;;;;;1999.90;999.90;;;-2.10;99.90;;;;;;4957568;28;20514;-85
2024/01/20 05:01:50;;;;;;;1999.90;999.90;;;-2.10;99.90;;;;;;4956309;28;20031;-85
2024/01/20 05:04:16;;;;;;;1999.90;999.90;;;-2.10;99.90;;;;;;4957350;28;20036;-85
2024/01/20 05:06:45;;;;;;;1999.90;999.90;;;-2.10;99.90;;;;;;4959486;28;20406;-85
2024/01/20 05:09:12;;;;;;;1999.90;999.90;;;-2.10;99.90;;;;;;4958562;28;20036;-85
2024/01/20 05:11:37;;;;;;;1999.90;999.90;;;-2.10;99.90;;;;;;4959579;28;20032;-85
2024/01/20 05:14:03;;;;;;;1999.90;999.90;;;-2.10;99.90;;;;;;4958086;28;20035;-85
2024/01/20 05:16:28;;;;;;;1999.90;999.90;;;-2.10;99.90;;;;;;4959167;28;20043;-86
2024/01/20 05:18:54;;;;;;;1999.90;999.90;;;-2.00;99.90;;;;;;4961599;28;20035;-85
2024/01/20 05:21:19;;;;;;;1999.90;999.90;;;-2.00;99.90;;;;;;4959385;28;20180;-84
2024/01/20 05:23:46;;;;;;;1999.90;999.90;;;-2.10;99.90;;;;;;4959037;28;20090;-85
2024/01/20 05:26:12;;;;;;;1999.90;999.90;;;-2.00;99.90;;;;;;4958032;28;20509;-85
2024/01/20 05:28:37;;;;;;;1999.90;999.90;;;-2.10;99.90;;;;;;4958393;28;20032;-85
2024/01/20 05:31:03;;;;;;;1999.90;999.90;;;-2.10;99.90;;;;;;4959578;28;20047;-85
2024/01/20 05:33:28;;;;;;;1999.90;999.90;;;-2.10;99.90;;;;;;4958801;28;20189;-85
2024/01/20 05:35:56;;;;;;;1999.90;999.90;;;-2.10;99.90;;;;;;4958658;28;20502;-85
2024/01/20 05:38:21;;;;;;;1999.90;999.90;;;-2.10;99.90;;;;;;4957486;28;20675;-85
2024/01/20 05:40:47;;;;;;;1999.90;999.90;;;-2.10;99.90;;;;;;4957534;28;20046;-85
2024/01/20 05:43:12;;;;;;;1999.90;999.90;;;-2.10;99.90;;;;;;4958533;28;20110;-85
2024/01/20 05:45:38;;;;;;;1999.90;999.90;;;-2.10;99.90;;;;;;4957351;28;20035;-85
2024/01/20 05:48:03;;;;;;;1999.90;999.90;;;-2.10;99.90;;;;;;4957293;28;20039;-85
2024/01/20 05:50:29;;;;;;;1999.90;999.90;;;-2.10;99.90;;;;;;4959587;28;20067;-86
2024/01/20 05:52:55;;;;;;;1999.90;999.90;;;-2.10;99.90;;;;;;4962469;28;20122;-85
2024/01/20 05:55:20;;;;;;;1999.90;999.90;;;-2.10;99.90;;;;;;4958232;28;20800;-85
2024/01/20 05:57:46;;;;;;;1999.90;999.90;;;-2.00;99.90;;;;;;4956248;28;20398;-85
2024/01/20 06:00:12;;;;;;;1999.90;999.90;;;-2.10;99.90;;;;;;4958137;28;20398;-85
2024/01/20 06:02:37;;;;;;;1999.90;999.90;;;-2.00;99.90;;;;;;4956239;28;20040;-85
2024/01/20 06:05:03;;;;;;;1999.90;999.90;;;-2.00;99.90;;;;;;4956489;28;20098;-85
2024/01/20 06:07:29;;;;;;;1999.90;999.90;;;-2.00;99.90;;;;;;4956434;28;20036;-85
2024/01/20 06:09:54;;;;;;;1999.90;999.90;;;-2.00;99.90;;;;;;4957868;28;20107;-85
2024/01/20 06:12:20;;;;;;;1999.90;999.90;;;-2.00;99.90;;;;;;4957647;28;20040;-85
2024/01/20 06:14:45;;;;;;;1999.90;999.90;;;-2.00;99.90;;;;;;4956599;28;20114;-84
2024/01/20 06:17:11;;;;;;;1999.90;999.90;;;-2.00;99.90;;;;;;4956657;28;20134;-85
2024/01/20 06:19:36;;;;;;;1999.90;999.90;;;-2.00;99.90;;;;;;4956677;28;20038;-85
2024/01/20 06:22:02;;;;;;;1999.90;999.90;;;-2.00;99.90;;;;;;4956490;28;20564;-85
2024/01/20 06:24:30;;;;;;;1999.90;999.90;;;-2.00;99.90;;;;;;4956622;28;20027;-86
2024/01/20 06:26:55;;;;;;;1999.90;999.90;;;-2.00;99.90;;;;;;4956174;28;20039;-84
2024/01/20 06:29:21;;;;;;;1999.90;999.90;;;-2.00;99.90;;;;;;4956442;28;20032;-85
2024/01/20 06:31:46;;;;;;;1999.90;999.90;;;-2.10;99.90;;;;;;4957718;28;20047;-85
2024/01/20 06:34:12;;;;;;;1999.90;999.90;;;-2.10;99.90;;;;;;4957590;28;20032;-85
2024/01/20 06:36:37;;;;;;;1999.90;999.90;;;-2.00;99.90;;;;;;4956243;28;20047;-85
2024/01/20 06:39:03;;;;;;;1999.90;999.90;;;-2.00;99.90;;;;;;4958145;28;20055;-86
2024/01/20 06:41:28;;;;;;;1999.90;999.90;;;-2.10;99.90;;;;;;4957708;28;20044;-85
2024/01/20 06:43:54;;;;;;;1999.90;999.90;;;-2.10;99.90;;;;;;4957871;28;20036;-85
2024/01/20 06:46:19;;;;;;;1999.90;999.90;;;-2.10;99.90;;;;;;4956673;28;20118;-85
2024/01/20 06:48:45;;;;;;;1999.90;999.90;;;-2.10;99.90;;;;;;4956409;28;20039;-85
2024/01/20 06:51:14;;;;;;;1999.90;999.90;;;-2.10;99.90;;;;;;4957206;28;20446;-85
2024/01/20 06:53:40;;;;;;;1999.90;999.90;;;-2.10;99.90;;;;;;4955930;28;20469;-85
2024/01/20 06:56:06;;;;;;;1999.90;999.90;;;-2.10;99.90;;;;;;4956533;28;20048;-85
2024/01/20 06:58:34;;;;;;;1999.90;999.90;;;-2.10;99.90;;;;;;4955040;28;20063;-86
2024/01/20 07:00:59;;;;;;;1999.90;999.90;;;-2.10;99.90;;;;;;4954309;28;20533;-84
2024/01/20 07:03:25;;;;;;;1999.90;999.90;;;-2.10;99.90;;;;;;4955979;28;20108;-85
2024/01/20 07:05:50;;;;;;;1999.90;999.90;;;-2.20;99.90;;;;;;4955867;28;20040;-85
2024/01/20 07:08:16;;;;;;;1999.90;999.90;;;-2.20;99.90;;;;;;4954384;28;20091;-85
2024/01/20 07:10:41;;;;;;;1999.90;999.90;;;-2.10;99.90;;;;;;4955653;28;20446;-85
2024/01/20 07:13:07;;;;;;;1999.90;999.90;;;-2.20;99.90;;;;;;4954082;28;20028;-85
2024/01/20 07:15:33;;;;;;;1999.90;999.90;;;-2.20;99.90;;;;;;4954868;28;20470;-85
2024/01/20 07:17:58;;;;;;;1999.90;999.90;;;-2.20;99.90;;;;;;4954417;28;20557;-84
2024/01/20 07:20:25;;;;;;;1999.90;999.90;;;-2.20;99.90;;;;;;4954266;28;20528;-89
2024/01/20 07:22:50;;;;;;;1999.90;999.90;;;-2.20;99.90;;;;;;4954272;28;20063;-85
2024/01/20 07:25:17;;;;;;;1999.90;999.90;;;-2.20;99.90;;;;;;4955422;28;20062;-85
2024/01/20 07:27:43;;;;;;;1999.90;999.90;;;-2.10;99.90;;;;;;4958909;28;20036;-84
2024/01/20 07:30:09;;;;;;;1999.90;999.90;;;-2.10;99.90;;;;;;4959392;28;20395;-84
2024/01/20 07:32:35;;;;;;;1999.90;999.90;;;-2.10;99.90;;;;;;4957427;28;20058;-85
2024/01/20 07:35:04;;;;;;;1999.90;999.90;;;-2.10;99.90;;;;;;4957867;28;20036;-88
2024/01/20 07:37:30;;;;;;;1999.90;999.90;;;-2.10;99.90;;;;;;4957042;28;20044;-84
2024/01/20 07:39:55;;;;;;;1999.90;999.90;;;-2.10;99.90;;;;;;4958229;28;20046;-84
2024/01/20 07:42:21;;;;;;;1999.90;999.90;;;-2.10;99.90;;;;;;4958691;28;20036;-84
2024/01/20 07:44:46;;;;;;;1999.90;999.90;;;-2.00;99.90;;;;;;4957475;28;20119;-83
2024/01/20 07:47:14;;;;;;;1999.90;999.90;;;-2.00;99.90;;;;;;4957610;28;20114;-83
2024/01/20 07:49:39;;;;;;;1999.90;999.90;;;-1.90;99.90;;;;;;4958044;28;20036;-84
2024/01/20 07:52:05;;;;;;;1999.90;999.90;;;-1.90;99.90;;;;;;4959425;28;20027;-84
2024/01/20 07:54:30;;;;;;;1999.90;999.90;;;-1.90;99.90;;;;;;4958663;28;20043;-85
2024/01/20 07:56:56;;;;;;;1999.90;999.90;;;-1.90;99.90;;;;;;4959569;28;20410;-83
2024/01/20 07:59:22;;;;;;;1999.90;999.90;;;-1.90;99.90;;;;;;4960795;28;20437;-84
2024/01/20 08:01:47;;;;;;;1999.90;999.90;;;-1.80;99.90;;;;;;4958843;28;20131;-85
2024/01/20 08:04:13;;;;;;;1999.90;999.90;;;-1.80;99.90;;;;;;4961140;28;20039;-84
2024/01/20 08:06:38;;;;;;;1999.90;999.90;;;-1.80;99.90;;;;;;4963264;28;20047;-84
2024/01/20 08:09:04;;;;;;;1999.90;999.90;;;-1.80;99.90;;;;;;4961219;28;20087;-84
2024/01/20 08:11:29;;;;;;;1999.90;999.90;;;-1.70;99.90;;;;;;4958273;28;20090;-85
2024/01/20 08:13:55;;;;;;;1999.90;999.90;;;-1.60;99.90;;;;;;4967083;28;20027;-84
2024/01/20 08:16:21;;;;;;;1999.90;999.90;;;-1.60;99.90;;;;;;4976387;28;20454;-82
2024/01/20 08:18:46;;;;;;;1999.90;999.90;;;-1.50;99.90;;;;;;4977632;28;20073;-84
2024/01/20 08:21:12;;;;;;;1999.90;999.90;;;-1.40;99.90;;;;;;4975642;28;20035;-84
2024/01/20 08:23:37;;;;;;;1999.90;999.90;;;-1.40;99.90;;;;;;4977596;28;20039;-85
2024/01/20 08:26:03;;;;;;;1999.90;999.90;;;-1.40;99.90;;;;;;4976248;28;20490;-82
2024/01/20 08:28:29;;;;;;;1999.90;999.90;;;-1.40;99.90;;;;;;4976293;28;20407;-84
2024/01/20 08:30:55;;;;;;;1999.90;999.90;;;-1.40;99.90;;;;;;4976154;28;20126;-86
2024/01/20 08:33:20;;;;;;;1999.90;999.90;;;-1.30;99.90;;;;;;4975896;28;20059;-83
2024/01/20 08:35:46;;;;;;;1999.90;999.90;;;-1.30;99.90;;;;;;4977146;28;20046;-85
2024/01/20 08:38:11;;;;;;;1999.90;999.90;;;-1.40;99.90;;;;;;4975753;28;20040;-84
2024/01/20 08:40:37;;;;;;;1999.90;999.90;;;-1.40;99.90;;;;;;4975815;28;20501;-84
2024/01/20 08:43:02;;;;;;;1999.90;999.90;;;-1.40;99.90;;;;;;4975732;28;20178;-84
2024/01/20 08:45:28;;;;;;;1999.90;999.90;;;-1.10;99.90;;;;;;4976011;28;20398;-84
2024/01/20 08:58:50;;;;;;;1999.90;999.90;;;-1.20;99.90;;;;;;4955590;28;20060;-82
2024/01/20 09:01:16;;;;;;;1999.90;999.90;;;-1.10;99.90;;;;;;4936544;28;20048;-82
2024/01/20 09:03:42;;;;;;;1999.90;999.90;;;-1.10;99.90;;;;;;4950829;28;20085;-83
2024/01/20 09:06:07;;;;;;;1999.90;999.90;;;-1.10;99.90;;;;;;4941841;28;20108;-82
2024/01/20 09:08:33;;;;;;;1999.90;999.90;;;-1.00;99.90;;;;;;4957152;28;20039;-83
2024/01/20 09:10:58;;;;;;;1999.90;999.90;;;-0.90;99.90;;;;;;4943024;28;20040;-81
2024/01/20 09:13:24;;;;;;;1999.90;999.90;;;-0.80;99.90;;;;;;4958432;28;20112;-83
2024/01/20 09:15:50;;;;;;;1999.90;999.90;;;-0.70;99.90;;;;;;4957769;28;20035;-82
2024/01/20 09:18:17;;;;;;;1999.90;999.90;;;-0.70;99.90;;;;;;4959587;28;20032;-83
2024/01/20 09:20:43;;;;;;;1999.90;999.90;;;-0.70;99.90;;;;;;4957454;28;20036;-85
2024/01/20 09:23:08;;;;;;;1999.90;999.90;;;-0.60;99.90;;;;;;4957099;28;20040;-83
2024/01/20 09:25:34;;;;;;;1999.90;999.90;;;-0.70;99.90;;;;;;4953650;28;20459;-85
2024/01/20 09:28:00;;;;;;;1999.90;999.90;;;-0.80;99.90;;;;;;4938375;29;20044;-84
2024/01/20 09:30:26;;;;;;;1999.90;999.90;;;-1.00;99.90;;;;;;4938956;28;20032;-82
2024/01/20 09:32:51;;;;;;;1999.90;999.90;;;-1.20;99.90;;;;;;4939672;28;20063;-83
2024/01/20 09:35:17;;;;;;;1999.90;999.90;;;-1.30;99.90;;;;;;4955743;28;20040;-83
2024/01/20 09:37:42;;;;;;;1999.90;999.90;;;-1.40;99.90;;;;;;4939135;28;20044;-83
2024/01/20 09:40:09;;;;;;;1999.90;999.90;;;-1.50;99.90;;;;;;4939970;28;20063;-83
2024/01/20 09:42:34;;;;;;;1999.90;999.90;;;-1.50;99.90;;;;;;4951660;28;20099;-84
2024/01/20 09:45:00;;;;;;;1999.90;999.90;;;-1.50;99.90;;;;;;4952667;28;20043;-83
2024/01/20 09:47:27;;;;;;;1999.90;999.90;;;-1.50;99.90;;;;;;4953826;28;20777;-83
2024/01/20 09:49:53;;;;;;;1999.90;999.90;;;-1.30;99.90;;;;;;4957956;28;20498;-82
2024/01/20 09:52:29;;;;;;;1999.90;999.90;;;-1.30;99.90;;;;;;4959645;28;20043;-85
2024/01/20 09:55:09;;;;;;;1999.90;999.90;;;-1.30;99.90;;;;;;4956119;28;20513;-84
2024/01/20 09:57:36;;;;;;;1999.90;999.90;;;-1.20;99.90;;;;;;4956700;28;20047;-84
2024/01/20 10:00:04;;;;;;;1999.90;999.90;;;-1.30;99.90;;;;;;4957144;28;20036;-87
2024/01/20 10:02:32;;;;;;;1999.90;999.90;;;-1.20;99.90;;;;;;4955407;28;20042;-84
2024/01/20 10:05:05;;;;;;;1999.90;999.90;;;-1.00;99.90;;;;;;4957421;28;20060;-83
2024/01/20 10:07:31;;;;;;;1999.90;999.90;;;-1.00;99.90;;;;;;4957460;28;20091;-84
2024/01/20 10:09:57;;;;;;;1999.90;999.90;;;-1.00;99.90;;;;;;4955538;28;20038;-86
2024/01/20 10:12:26;;;;;;;1999.90;999.90;;;-1.00;99.90;;;;;;4950298;28;20520;-83
2024/01/20 10:14:52;;;;;;;1999.90;999.90;;;-0.90;99.90;;;;;;4941474;28;20043;-84
2024/01/20 10:17:18;;;;;;;1999.90;999.90;;;-0.80;99.90;;;;;;4938748;28;20450;-87
2024/01/20 10:19:45;;;;;;;1999.90;999.90;;;-0.70;99.90;;;;;;4951975;28;20055;-83
2024/01/20 10:22:11;;;;;;;1999.90;999.90;;;-0.70;99.90;;;;;;4946929;28;20825;-84
2024/01/20 10:24:50;;;;;;;1999.90;999.90;;;-0.70;99.90;;;;;;4950516;28;20039;-84
2024/01/20 10:27:23;;;;;;;1999.90;999.90;;;-0.70;99.90;;;;;;4962010;28;20044;-83
2024/01/20 10:29:49;;;;;;;1999.90;999.90;;;-0.80;99.90;;;;;;4956637;28;20106;-83
2024/01/20 10:32:16;;;;;;;1999.90;999.90;;;-0.80;99.90;;;;;;4956515;28;20042;-83
2024/01/20 10:34:42;;;;;;;1999.90;999.90;;;-0.90;99.90;;;;;;4958527;28;20039;-84
2024/01/20 10:37:14;;;;;;;1999.90;999.90;;;-0.90;99.90;;;;;;4956673;28;20051;-83
2024/01/20 10:39:46;;;;;;;1999.90;999.90;;;-1.00;99.90;;;;;;4948363;28;20490;-83
2024/01/20 10:42:13;;;;;;;1999.90;999.90;;;-1.10;99.90;;;;;;4951676;28;20046;-84
2024/01/20 10:44:42;;;;;;;1999.90;999.90;;;-1.10;99.90;;;;;;4946647;28;20036;-82
2024/01/20 10:47:16;;;;;;;1999.90;999.90;;;-1.10;99.90;;;;;;4945674;28;20126;-83
2024/01/20 10:49:48;;;;;;;1999.90;999.90;;;-1.00;99.90;;;;;;4956882;28;20885;-83
2024/01/20 10:52:14;;;;;;;1999.90;999.90;;;-1.00;99.90;;;;;;4939308;29;20101;-82
2024/01/20 10:54:44;;;;;;;1999.90;999.90;;;-1.00;99.90;;;;;;4940503;29;20125;-83
2024/01/20 10:57:13;;;;;;;1999.90;999.90;;;-1.10;99.90;;;;;;4939197;29;20059;-83
2024/01/20 10:59:42;;;;;;;1999.90;999.90;;;-1.10;99.90;;;;;;4940866;28;20495;-82
2024/01/20 11:02:12;;;;;;;1999.90;999.90;;;-1.20;99.90;;;;;;4943778;28;20065;-84
2024/01/20 11:04:39;;;;;;;1999.90;999.90;;;-1.20;99.90;;;;;;4944363;29;20036;-82
2024/01/20 11:07:08;;;;;;;1999.90;999.90;;;-1.10;99.90;;;;;;4941586;29;20048;-83
2024/01/20 11:09:33;;;;;;;1999.90;999.90;;;-1.20;99.90;;;;;;4941661;29;20038;-83
2024/01/20 11:12:09;;;;;;;1999.90;999.90;;;-1.20;99.90;;;;;;4942679;29;20391;-82
2024/01/20 11:14:35;;;;;;;1999.90;999.90;;;-1.10;99.90;;;;;;4941512;29;20032;-82
2024/01/20 11:17:12;;;;;;;1999.90;999.90;;;-1.10;99.90;;;;;;4941485;29;20747;-83
2024/01/20 11:19:38;;;;;;;1999.90;999.90;;;-1.10;99.90;;;;;;4940750;28;20043;-83
2024/01/20 11:22:04;;;;;;;1999.90;999.90;;;-1.10;99.90;;;;;;4943140;28;20040;-83
2024/01/20 11:24:41;;;;;;;1999.90;999.90;;;-1.10;99.90;;;;;;4953733;28;20072;-82
2024/01/20 11:27:07;;;;;;;1999.90;999.90;;;-1.00;99.90;;;;;;4956085;28;20029;-84
2024/01/20 11:29:32;;;;;;;1999.90;999.90;;;-1.00;99.90;;;;;;4952876;28;20364;-83
2024/01/20 11:31:58;;;;;;;1999.90;999.90;;;-1.00;99.90;;;;;;4949212;28;20091;-83
2024/01/20 11:34:24;;;;;;;1999.90;999.90;;;-0.90;99.90;;;;;;4951187;28;20036;-83
2024/01/20 11:36:50;;;;;;;1999.90;999.90;;;-0.90;99.90;;;;;;4954922;28;20051;-83
2024/01/20 11:39:18;;;;;;;1999.90;999.90;;;-0.90;99.90;;;;;;4966923;28;20031;-83
2024/01/20 11:41:43;;;;;;;1999.90;999.90;;;-0.80;99.90;;;;;;4961682;28;20096;-83
2024/01/20 11:44:10;;;;;;;1999.90;999.90;;;-0.80;99.90;;;;;;4954642;28;20036;-83
2024/01/20 11:46:36;;;;;;;1999.90;999.90;;;-0.70;99.90;;;;;;4964320;28;20107;-82
2024/01/20 11:49:02;;;;;;;1999.90;999.90;;;-0.70;99.90;;;;;;4968183;28;20062;-83
2024/01/20 11:51:27;;;;;;;1999.90;999.90;;;-0.60;99.90;;;;;;4952030;28;20043;-82
2024/01/20 11:53:53;;;;;;;1999.90;999.90;;;-0.60;99.90;;;;;;4961839;28;20486;-82
2024/01/20 11:56:18;;;;;;;1999.90;999.90;;;-0.60;99.90;;;;;;4958026;28;20047;-83
2024/01/20 11:58:44;;;;;;;1999.90;999.90;;;-0.60;99.90;;;;;;4955576;28;20036;-83
2024/01/20 12:01:10;;;;;;;1999.90;999.90;;;-0.50;99.90;;;;;;4948968;28;20123;-85
2024/01/20 12:03:35;;;;;;;1999.90;999.90;;;-0.50;99.90;;;;;;4958499;28;20036;-84